Time;durP1;ratioP1;P1;durP2;ratioP2;P2;SDS_P1;SDS_P2;PMS_P1;PMS_P2;Temp;Humidity;BMP_temperature;BMP_pressure;BME280_temperature;BME280_humidity;BME280_pressure;Samples;Min_cycle;Max_cycle;Signal;HPM_P1;HPM_P2
2021/08/09 09:02:03;;;;;;;3.80;1.63;;;23.40;38.40;;;;;;5216257;22;20292;-80
2021/08/09 09:04:32;;;;;;;4.47;1.73;;;24.10;35.50;;;;;;5040130;28;20227;-82
2021/08/09 09:07:04;;;;;;;3.95;1.60;;;24.10;35.50;;;;;;5043171;28;20225;-82
2021/08/09 09:09:32;;;;;;;3.08;1.50;;;24.90;32.50;;;;;;5052430;28;20585;-82
2021/08/09 09:12:01;;;;;;;2.85;1.88;;;25.50;30.30;;;;;;5043120;28;20194;-82
2021/08/09 09:14:30;;;;;;;1.98;1.48;;;25.70;28.70;;;;;;5041070;28;20230;-82
2021/08/09 09:16:58;;;;;;;3.33;1.80;;;26.00;31.40;;;;;;5040102;28;20202;-85
2021/08/09 09:19:35;;;;;;;3.25;1.90;;;25.60;29.40;;;;;;5033719;28;20246;-85
2021/08/09 09:22:02;;;;;;;2.65;1.52;;;25.70;29.00;;;;;;5039252;28;20572;-84
2021/08/09 09:24:30;;;;;;;3.75;1.88;;;26.10;30.40;;;;;;5039545;28;20308;-84
2021/08/09 09:26:58;;;;;;;2.88;1.95;;;26.50;28.20;;;;;;5036225;28;20266;-84
2021/08/09 09:29:27;;;;;;;3.03;1.90;;;27.50;26.00;;;;;;5034498;28;20236;-84
2021/08/09 09:31:55;;;;;;;4.00;2.00;;;28.30;25.80;;;;;;5033935;28;20293;-85
2021/08/09 09:34:24;;;;;;;63.30;22.25;;;28.20;24.80;;;;;;5014612;28;20234;-87
2021/08/09 09:36:55;;;;;;;4.03;2.03;;;28.60;25.70;;;;;;5013568;28;20223;-84
2021/08/09 09:39:33;;;;;;;22.17;16.38;;;29.10;24.60;;;;;;5014069;28;20208;-84
2021/08/09 09:42:02;;;;;;;5.20;3.13;;;29.10;23.60;;;;;;5014640;28;20285;-84
2021/08/09 09:44:42;;;;;;;4.00;1.88;;;29.60;24.70;;;;;;5014053;28;20189;-85
2021/08/09 09:47:25;;;;;;;3.65;2.05;;;29.50;21.20;;;;;;5006453;28;20665;-84
2021/08/09 09:49:53;;;;;;;4.70;2.40;;;30.00;22.10;;;;;;5014944;28;20191;-84
2021/08/09 09:52:36;;;;;;;5.28;2.40;;;30.30;20.20;;;;;;5024860;28;20746;-86
2021/08/09 09:58:35;;;;;;;3.92;2.10;;;30.30;16.80;;;;;;5019602;28;20546;-85
2021/08/09 10:01:24;;;;;;;27.48;16.90;;;30.40;18.50;;;;;;5018542;28;20194;-84
2021/08/09 10:03:52;;;;;;;4.25;2.70;;;30.40;17.60;;;;;;5017728;28;20658;-84
2021/08/09 10:06:20;;;;;;;3.13;2.20;;;29.40;19.50;;;;;;5018148;28;20301;-84
2021/08/09 10:08:49;;;;;;;6.20;3.53;;;29.80;19.50;;;;;;5025738;28;20264;-84
2021/08/09 10:11:22;;;;;;;3.70;2.33;;;30.30;17.80;;;;;;5019037;28;20647;-84
2021/08/09 10:13:50;;;;;;;4.38;2.10;;;30.60;18.50;;;;;;5018703;28;20325;-85
2021/08/09 10:16:17;;;;;;;3.35;2.20;;;30.40;20.10;;;;;;5021038;28;20254;-84
2021/08/09 10:18:48;;;;;;;6.28;3.90;;;30.90;19.90;;;;;;5019722;28;20223;-85
2021/08/09 10:21:16;;;;;;;3.85;2.30;;;31.90;17.20;;;;;;5022368;28;20765;-85
2021/08/09 10:23:44;;;;;;;3.47;2.40;;;31.90;17.60;;;;;;5007888;28;20321;-85
2021/08/09 10:26:14;;;;;;;8.18;5.75;;;32.00;14.70;;;;;;5019136;28;20253;-86
2021/08/09 10:29:07;;;;;;;3.38;2.58;;;31.90;15.10;;;;;;5019500;28;20229;-85
2021/08/09 10:31:36;;;;;;;7.35;5.05;;;31.20;16.90;;;;;;5010510;28;20266;-86
2021/08/09 10:34:06;;;;;;;6.18;5.35;;;32.10;17.60;;;;;;5018802;28;20643;-86
2021/08/09 10:37:05;;;;;;;7.80;4.82;;;32.50;15.40;;;;;;5019217;28;20703;-86
2021/08/09 10:39:52;;;;;;;2.97;2.30;;;32.10;15.20;;;;;;5018588;28;20313;-84
2021/08/09 10:45:44;;;;;;;2.50;2.30;;;31.00;17.10;;;;;;5017297;28;20206;-85
2021/08/09 10:48:12;;;;;;;3.97;2.70;;;30.20;17.60;;;;;;5017032;28;20195;-87
2021/08/09 10:50:54;;;;;;;3.90;2.65;;;30.70;19.10;;;;;;5016744;28;20297;-85
2021/08/09 10:53:41;;;;;;;3.05;2.75;;;29.10;18.50;;;;;;5016342;28;20198;-84
2021/08/09 10:56:08;;;;;;;3.97;2.75;;;28.90;18.80;;;;;;5018247;28;20226;-84
2021/08/09 10:58:56;;;;;;;2.30;2.10;;;28.20;20.60;;;;;;5001001;28;20235;-83
2021/08/09 11:01:58;;;;;;;3.78;1.98;;;28.10;21.30;;;;;;4998333;28;20246;-83
2021/08/09 11:04:25;;;;;;;3.70;3.05;;;27.00;20.90;;;;;;5015642;28;20228;-83
2021/08/09 11:14:14;;;;;;;1.77;1.60;;;27.30;21.20;;;;;;5038462;28;20300;-83
2021/08/09 11:27:04;;;;;;;2.17;1.80;;;26.60;21.60;;;;;;5002820;28;20183;-81
2021/08/09 11:29:51;;;;;;;2.53;1.77;;;26.10;24.30;;;;;;5023579;28;20721;-81
2021/08/09 11:32:36;;;;;;;3.45;1.83;;;26.00;25.10;;;;;;5017433;28;20282;-82
2021/08/09 11:35:03;;;;;;;2.70;1.70;;;25.40;24.70;;;;;;5017950;28;20294;-83
2021/08/09 11:37:54;;;;;;;2.35;1.67;;;25.30;24.60;;;;;;5018253;28;20678;-83
2021/08/09 11:40:39;;;;;;;3.00;1.40;;;25.50;27.80;;;;;;5019032;28;20267;-81
